ADDS METAR Data INFO
IDs: Format: Raw Decoded Include TAF

Data at: 0145 UTC 17 Oct 2017

METAR for:TJPS (Ponce/Mercedita Arpt, PR, US)
Text:TJPS 170055Z AUTO 10006G14KT 8000 RA VCTS FEW045 SCT065 BKN085 24/22 A3002 RMK AO2 RAB2257 SLP164 WND DATA ESTMD P0013 T02390224 $
Temperature: 23.9°C ( 75°F)
Dewpoint: 22.4°C ( 72°F) [RH = 91%]
Pressure (altimeter):30.02 inches Hg (1016.7 mb) [Sea level pressure: 1016.4 mb]
Winds:from the E (100 degrees) at 7 MPH (6 knots; 3.1 m/s) gusting to 16 MPH (14 knots; 7.2 m/s)
Visibility: 5 sm ( 8 km)
Ceiling:8500 feet AGL
Clouds: few clouds at 4500 feet AGL, scattered clouds at 6500 feet AGL, broken clouds at 8500 feet AGL
Weather:RA VCTS (moderate rain, thunderstorm in vicinity)
QC Flag:automated observation with no human augmentation; SOME DATA ABOVE MAY BE INACCURATE!!!"$" is an indication the sensor requires maintenance.